Time;durP1;ratioP1;P1;durP2;ratioP2;P2;SDS_P1;SDS_P2;PMS_P1;PMS_P2;Temp;Humidity;BMP_temperature;BMP_pressure;BME280_temperature;BME280_humidity;BME280_pressure;Samples;Min_cycle;Max_cycle;Signal;HPM_P1;HPM_P2
2023/07/30 00:01:34;;;;;;;8.40;2.22;;;;;;;15.99;100.00;99747.53;5073161;28;20074;-82
2023/07/30 00:04:00;;;;;;;7.90;2.15;;;;;;;15.97;100.00;99750.19;5073123;28;20033;-81
2023/07/30 00:06:25;;;;;;;4.47;1.88;;;;;;;15.93;100.00;99747.63;5073331;28;20401;-80
2023/07/30 00:08:51;;;;;;;3.97;2.03;;;;;;;15.90;100.00;99748.72;5073238;28;20017;-81
2023/07/30 00:11:16;;;;;;;5.35;2.47;;;;;;;15.89;100.00;99755.81;5073192;28;20458;-80
2023/07/30 00:13:41;;;;;;;3.67;2.20;;;;;;;15.81;100.00;99754.84;5073002;28;20075;-80
2023/07/30 00:16:07;;;;;;;10.55;2.80;;;;;;;15.75;100.00;99750.50;5071895;28;20028;-81
2023/07/30 00:18:32;;;;;;;5.72;2.75;;;;;;;15.75;100.00;99750.50;5071663;28;20115;-80
2023/07/30 00:20:58;;;;;;;7.20;2.17;;;;;;;15.69;100.00;99745.56;5072085;28;20044;-81
2023/07/30 00:23:23;;;;;;;5.43;2.00;;;;;;;15.70;100.00;99752.13;5073189;28;20036;-80
2023/07/30 00:25:48;;;;;;;7.32;2.40;;;;;;;15.65;100.00;99756.63;5072875;28;20035;-80
2023/07/30 00:28:14;;;;;;;4.18;2.00;;;;;;;15.61;100.00;99755.38;5054864;28;20128;-82
2023/07/30 00:30:39;;;;;;;3.85;2.13;;;;;;;15.61;100.00;99749.63;5072991;28;20020;-82
2023/07/30 00:33:05;;;;;;;4.82;2.58;;;;;;;15.56;100.00;99753.31;5072800;28;20036;-81
2023/07/30 00:35:30;;;;;;;7.15;1.90;;;;;;;15.54;100.00;99765.34;5074783;28;20103;-81
2023/07/30 00:37:55;;;;;;;7.20;2.03;;;;;;;15.48;100.00;99752.34;5076724;28;20090;-81
2023/07/30 00:40:21;;;;;;;6.55;2.67;;;;;;;15.50;100.00;99766.97;5058613;28;20021;-81
2023/07/30 00:42:46;;;;;;;2.85;1.98;;;;;;;15.44;100.00;99777.78;5076631;28;20122;-81
2023/07/30 00:45:12;;;;;;;6.05;2.35;;;;;;;15.37;100.00;99766.84;5077723;28;20024;-80
2023/07/30 00:47:38;;;;;;;4.65;1.90;;;;;;;15.37;100.00;99767.63;5077183;28;20040;-79
2023/07/30 00:50:05;;;;;;;7.05;2.47;;;;;;;15.35;100.00;99766.63;5076382;28;20425;-80
2023/07/30 00:52:30;;;;;;;3.63;2.00;;;;;;;15.24;100.00;99753.13;5076341;28;20028;-79
2023/07/30 00:54:57;;;;;;;4.60;1.90;;;;;;;15.31;100.00;99772.69;5075284;28;20036;-81
2023/07/30 00:57:23;;;;;;;3.65;1.90;;;;;;;15.31;100.00;99766.94;5076279;28;20523;-80
2023/07/30 00:59:49;;;;;;;7.45;2.25;;;;;;;15.28;100.00;99770.88;5074860;28;20150;-81
2023/07/30 01:02:14;;;;;;;6.50;2.63;;;;;;;15.26;100.00;99774.31;5074750;28;20382;-80
2023/07/30 01:04:40;;;;;;;6.88;2.10;;;;;;;15.22;100.00;99776.69;5074374;28;20028;-80
2023/07/30 01:07:06;;;;;;;5.85;2.00;;;;;;;15.19;100.00;99782.75;5074228;28;20028;-80
2023/07/30 01:09:32;;;;;;;7.88;2.50;;;;;;;15.19;100.00;99783.53;5072379;28;20079;-80
2023/07/30 01:11:58;;;;;;;4.28;2.13;;;;;;;15.19;100.00;99783.53;5038189;28;20032;-80
2023/07/30 01:14:26;;;;;;;4.35;2.38;;;;;;;15.19;100.00;99776.97;5070963;28;20028;-79
2023/07/30 01:16:51;;;;;;;5.53;2.15;;;;;;;15.17;100.00;99783.25;5071973;28;20032;-80
2023/07/30 01:19:17;;;;;;;3.92;2.15;;;;;;;15.15;100.00;99785.91;5072536;28;20035;-78
2023/07/30 01:21:42;;;;;;;7.82;2.03;;;;;;;15.06;100.00;99786.28;5071289;28;20028;-80
2023/07/30 01:24:08;;;;;;;2.80;2.03;;;;;;;15.03;100.00;99783.66;5073667;28;20028;-81
2023/07/30 01:26:58;;;;;;;4.22;2.22;;;;;;;15.06;100.00;99785.50;5073738;28;20025;-79
2023/07/30 01:29:44;;;;;;;11.00;2.53;;;;;;;15.06;100.00;99792.03;5073876;28;20428;-80
2023/07/30 01:32:11;;;;;;;6.82;2.50;;;;;;;15.04;100.00;99788.13;5040290;28;20054;-80
2023/07/30 01:34:37;;;;;;;7.15;2.20;;;;;;;15.04;100.00;99788.91;5055394;28;20037;-80
2023/07/30 01:37:05;;;;;;;4.20;1.95;;;;;;;14.99;100.00;99788.94;5072419;28;20032;-80
2023/07/30 01:39:31;;;;;;;6.72;2.67;;;;;;;15.03;100.00;99798.84;5073303;28;20416;-80
2023/07/30 01:41:57;;;;;;;6.95;2.30;;;;;;;15.02;100.00;99800.16;5073708;28;20372;-79
2023/07/30 01:44:22;;;;;;;4.90;2.33;;;;;;;15.00;100.00;99799.91;5073398;28;20032;-80
2023/07/30 01:46:47;;;;;;;5.93;2.67;;;;;;;15.00;100.00;99802.81;5074004;28;20085;-81
2023/07/30 01:49:13;;;;;;;4.53;2.30;;;;;;;14.97;100.00;99798.09;5073597;28;20501;-81
2023/07/30 01:51:38;;;;;;;3.67;2.13;;;;;;;15.01;100.00;99797.81;5075461;28;20028;-80
2023/07/30 01:54:04;;;;;;;5.25;2.03;;;;;;;14.99;100.00;99806.19;5075223;28;20477;-80
2023/07/30 01:56:29;;;;;;;7.10;2.17;;;;;;;14.92;100.00;99803.94;5073838;28;20025;-79
2023/07/30 01:58:54;;;;;;;6.22;2.05;;;;;;;14.86;100.00;99800.31;5075338;28;20052;-79
2023/07/30 02:01:20;;;;;;;5.65;2.33;;;;;;;14.89;100.00;99791.38;5075092;28;20466;-81
2023/07/30 02:03:45;;;;;;;4.95;2.10;;;;;;;14.93;100.00;99809.13;5074029;28;20028;-80
2023/07/30 02:06:11;;;;;;;7.78;2.20;;;;;;;14.93;100.00;99806.25;5075031;28;20028;-80
2023/07/30 02:08:37;;;;;;;10.55;2.47;;;;;;;14.90;100.00;99807.34;5073553;28;20025;-80
2023/07/30 02:11:02;;;;;;;5.95;2.05;;;;;;;14.95;100.00;99805.72;5074729;28;20081;-80
2023/07/30 02:13:28;;;;;;;7.55;2.58;;;;;;;14.92;100.00;99801.06;5075103;28;20070;-79
2023/07/30 02:15:53;;;;;;;4.68;2.13;;;;;;;14.92;100.00;99798.97;5075002;28;20024;-80
2023/07/30 02:18:19;;;;;;;3.63;1.92;;;;;;;14.94;100.00;99798.41;5074889;28;20024;-80
2023/07/30 02:20:44;;;;;;;4.80;2.00;;;;;;;14.94;100.00;99799.19;5074673;28;20458;-80
2023/07/30 02:23:09;;;;;;;8.98;2.50;;;;;;;14.97;100.00;99800.97;5074674;28;20035;-80
2023/07/30 02:25:35;;;;;;;4.57;2.03;;;;;;;14.98;100.00;99805.41;5074577;28;20075;-80
2023/07/30 02:28:01;;;;;;;9.50;2.00;;;;;;;14.98;100.00;99814.06;5073590;28;20036;-79
2023/07/30 02:30:27;;;;;;;5.93;2.30;;;;;;;15.00;100.00;99804.91;5074782;28;20032;-80
2023/07/30 02:32:53;;;;;;;7.00;2.45;;;;;;;14.95;100.00;99800.75;5074415;28;20527;-80
2023/07/30 02:35:18;;;;;;;4.82;2.42;;;;;;;14.99;100.00;99820.59;5074389;28;20036;-79
2023/07/30 02:37:43;;;;;;;7.00;2.58;;;;;;;14.99;100.00;99811.97;5074391;28;20029;-79
2023/07/30 02:40:09;;;;;;;5.68;2.67;;;;;;;14.99;100.00;99818.50;5074122;28;20027;-80
2023/07/30 02:42:35;;;;;;;11.30;2.50;;;;;;;15.00;100.00;99813.53;5072925;28;20446;-81
2023/07/30 02:45:00;;;;;;;7.53;2.33;;;;;;;14.99;100.00;99814.84;5074467;28;20485;-80
2023/07/30 02:47:25;;;;;;;8.13;3.20;;;;;;;15.00;100.00;99822.16;5074285;28;20074;-80
2023/07/30 02:49:51;;;;;;;10.55;2.55;;;;;;;14.87;100.00;99802.66;5073785;28;20040;-80
2023/07/30 02:52:16;;;;;;;5.40;2.75;;;;;;;14.99;100.00;99821.38;5074049;28;20461;-80
2023/07/30 02:54:42;;;;;;;6.55;2.58;;;;;;;15.00;100.00;99822.94;5072689;28;20101;-79
2023/07/30 02:57:07;;;;;;;12.55;2.88;;;;;;;14.96;100.00;99830.31;5072599;28;20449;-79
2023/07/30 02:59:35;;;;;;;7.03;3.00;;;;;;;14.94;100.00;99825.06;5073519;28;20093;-79
2023/07/30 03:02:02;;;;;;;5.20;2.45;;;;;;;14.94;100.00;99825.06;5074225;28;20124;-81
2023/07/30 03:04:27;;;;;;;4.10;2.33;;;;;;;14.95;100.00;99831.63;5074641;28;20104;-79
2023/07/30 03:06:52;;;;;;;4.15;2.30;;;;;;;14.94;100.00;99821.41;5073973;28;20115;-80
2023/07/30 03:09:18;;;;;;;5.45;2.28;;;;;;;14.96;100.00;99827.44;5073619;28;20039;-80
2023/07/30 03:11:43;;;;;;;3.13;2.33;;;;;;;14.96;100.00;99831.09;5072557;28;20150;-80
2023/07/30 03:14:08;;;;;;;6.70;2.08;;;;;;;14.96;100.00;99827.44;5073966;28;20028;-79
2023/07/30 03:16:34;;;;;;;6.13;2.97;;;;;;;14.93;100.00;99822.72;5073756;28;20028;-80
2023/07/30 03:18:59;;;;;;;7.35;2.40;;;;;;;14.97;100.00;99823.25;5072440;28;20108;-80
2023/07/30 03:21:24;;;;;;;7.00;2.90;;;;;;;14.97;100.00;99821.13;5073629;28;20063;-81
2023/07/30 03:23:50;;;;;;;11.45;2.72;;;;;;;14.90;100.00;99815.19;5073376;28;20056;-80
2023/07/30 03:26:15;;;;;;;8.77;2.65;;;;;;;14.99;100.00;99827.13;5072384;28;20024;-79
2023/07/30 03:28:41;;;;;;;5.50;2.40;;;;;;;15.00;100.00;99820.06;5073793;28;20024;-79
2023/07/30 03:31:06;;;;;;;11.27;2.40;;;;;;;15.03;100.00;99821.84;5073615;28;20373;-80
2023/07/30 03:33:32;;;;;;;8.57;2.20;;;;;;;15.05;100.00;99827.88;5073605;28;20028;-80
2023/07/30 03:35:57;;;;;;;5.95;2.30;;;;;;;15.07;100.00;99815.84;5073495;28;20032;-79
2023/07/30 03:38:22;;;;;;;6.47;2.17;;;;;;;15.13;100.00;99819.41;5073656;28;20044;-80
2023/07/30 03:40:48;;;;;;;5.88;2.17;;;;;;;15.15;100.00;99820.47;5073565;28;20484;-80
2023/07/30 03:43:13;;;;;;;8.80;2.72;;;;;;;15.14;100.00;99818.91;5073355;28;20422;-80
2023/07/30 03:45:39;;;;;;;12.43;2.13;;;;;;;15.18;100.00;99818.59;5073426;28;20389;-79
2023/07/30 03:48:04;;;;;;;8.13;1.92;;;;;;;15.23;100.00;99820.63;5073085;28;20504;-80
2023/07/30 03:50:30;;;;;;;7.88;2.28;;;;;;;15.22;100.00;99813.31;5073257;28;20163;-80
2023/07/30 03:52:55;;;;;;;5.72;2.25;;;;;;;15.27;100.00;99815.38;5072571;28;20039;-80
2023/07/30 03:55:20;;;;;;;8.27;2.65;;;;;;;15.26;100.00;99813.81;5073329;28;20111;-80
2023/07/30 03:57:46;;;;;;;7.57;2.50;;;;;;;15.33;100.00;99821.84;5074481;28;20446;-78
2023/07/30 04:00:11;;;;;;;9.25;2.55;;;;;;;15.36;100.00;99817.13;5073347;28;20453;-78
2023/07/30 04:02:37;;;;;;;3.92;2.20;;;;;;;15.37;100.00;99821.56;5073477;28;20025;-79
2023/07/30 04:05:02;;;;;;;5.38;2.20;;;;;;;15.37;100.00;99822.34;5073117;28;20108;-80
2023/07/30 04:07:28;;;;;;;5.53;2.10;;;;;;;15.42;100.00;99829.34;5073270;28;20115;-80
2023/07/30 04:09:53;;;;;;;8.00;3.25;;;;;;;15.43;100.00;99825.94;5073911;28;20028;-80
2023/07/30 04:12:21;;;;;;;7.05;1.83;;;;;;;15.49;100.00;99820.91;5077066;28;20540;-80
2023/07/30 04:14:55;;;;;;;6.13;2.22;;;;;;;15.56;100.00;99834.69;5076183;28;20040;-79
2023/07/30 04:17:21;;;;;;;5.78;2.17;;;;;;;15.62;100.00;99831.81;5077078;28;20036;-80
2023/07/30 04:19:48;;;;;;;6.68;1.92;;;;;;;15.61;100.00;99824.50;5059104;28;20040;-80
2023/07/30 04:22:14;;;;;;;3.90;1.90;;;;;;;15.69;100.00;99834.88;5075380;28;20036;-78
2023/07/30 04:24:42;;;;;;;5.00;2.28;;;;;;;15.71;100.00;99828.59;5075733;28;20052;-79
2023/07/30 04:27:07;;;;;;;7.80;1.88;;;;;;;15.80;100.00;99827.44;5077294;28;20094;-79
2023/07/30 04:29:34;;;;;;;5.45;1.95;;;;;;;15.84;100.00;99831.56;5076616;28;20032;-78
2023/07/30 04:32:02;;;;;;;12.02;2.10;;;;;;;15.89;100.00;99829.94;5076775;28;20044;-80
2023/07/30 04:34:27;;;;;;;5.40;2.35;;;;;;;15.97;100.00;99831.66;5077018;28;20414;-80
2023/07/30 04:36:54;;;;;;;5.45;2.03;;;;;;;16.03;100.00;99826.63;5076730;28;20492;-80
2023/07/30 04:39:19;;;;;;;4.80;2.10;;;;;;;16.10;100.00;99831.78;5076713;28;20032;-80
2023/07/30 04:41:47;;;;;;;6.75;2.35;;;;;;;16.13;100.00;99839.34;5076792;28;20028;-80
2023/07/30 04:44:13;;;;;;;15.38;3.30;;;;;;;16.15;100.00;99838.00;5076628;28;20028;-80
2023/07/30 04:46:47;;;;;;;7.78;2.50;;;;;;;16.20;100.00;99829.31;5075250;28;20068;-80
2023/07/30 04:49:12;;;;;;;6.05;2.10;;;;;;;16.20;100.00;99822.75;5074885;28;20049;-80
2023/07/30 04:51:39;;;;;;;6.63;2.28;;;;;;;16.36;100.00;99827.50;5076527;28;20036;-79
2023/07/30 04:54:06;;;;;;;8.40;2.22;;;;;;;16.44;100.00;99834.22;5076510;28;20068;-80
2023/07/30 04:56:33;;;;;;;4.75;1.77;;;;;;;16.54;100.00;99838.31;5075409;28;20165;-80
2023/07/30 04:58:59;;;;;;;4.22;1.77;;;;;;;16.63;100.00;99843.66;5075437;28;20035;-80
2023/07/30 05:01:31;;;;;;;6.45;1.90;;;;;;;16.72;100.00;99834.63;5074895;28;20029;-80
2023/07/30 05:03:57;;;;;;;7.68;2.53;;;;;;;16.77;100.00;99842.41;5073212;28;20040;-80
2023/07/30 05:06:23;;;;;;;2.50;1.67;;;;;;;16.87;100.00;99846.44;5073394;28;20032;-79
2023/07/30 05:09:01;;;;;;;6.70;1.60;;;;;;;16.97;100.00;99844.72;5074638;28;20033;-80
2023/07/30 05:11:28;;;;;;;9.75;1.83;;;;;;;17.05;100.00;99841.19;5074557;28;20520;-79
2023/07/30 05:14:11;;;;;;;6.68;2.25;;;;;;;17.10;100.00;99841.09;5074610;28;20028;-79
2023/07/30 05:16:37;;;;;;;3.88;2.33;;;;;;;17.15;100.00;99846.00;5074528;28;20039;-80
2023/07/30 05:19:05;;;;;;;6.57;2.65;;;;;;;17.22;100.00;99841.69;5075842;28;20129;-80
2023/07/30 05:21:38;;;;;;;5.80;2.08;;;;;;;17.14;100.00;99835.00;5074589;28;20124;-80
2023/07/30 05:24:04;;;;;;;7.53;2.30;;;;;;;17.25;100.00;99847.13;5075523;28;20117;-80
2023/07/30 05:26:30;;;;;;;9.13;2.20;;;;;;;17.35;100.00;99828.06;5074691;28;20067;-80
2023/07/30 05:28:57;;;;;;;4.57;2.08;;;;;;;17.41;100.00;99813.50;5075625;28;20440;-80
2023/07/30 05:31:23;;;;;;;4.05;2.00;;;;;;;17.61;100.00;99832.34;5074867;28;20032;-79
2023/07/30 05:33:49;;;;;;;11.80;2.60;;;;;;;17.70;100.00;99820.34;5075939;28;20359;-79
2023/07/30 05:36:16;;;;;;;4.22;2.05;;;;;;;17.81;100.00;99817.25;5075807;28;20060;-80
2023/07/30 05:38:42;;;;;;;13.45;2.42;;;;;;;17.89;100.00;99823.13;5075761;28;20036;-79
2023/07/30 05:41:09;;;;;;;7.75;2.15;;;;;;;17.95;100.00;99824.59;5075618;28;20096;-79
2023/07/30 05:43:35;;;;;;;5.85;1.65;;;;;;;17.96;100.00;99826.16;5075760;28;20021;-79
2023/07/30 05:46:01;;;;;;;7.18;2.35;;;;;;;18.04;100.00;99823.34;5074564;28;20461;-79
2023/07/30 05:48:27;;;;;;;5.80;2.13;;;;;;;18.09;100.00;99825.34;5072976;28;20072;-80
2023/07/30 05:50:53;;;;;;;5.65;2.13;;;;;;;18.30;100.00;99846.47;5063278;28;20033;-79
2023/07/30 05:53:21;;;;;;;8.23;2.22;;;;;;;18.42;100.00;99844.94;5064686;28;20120;-80
2023/07/30 05:55:46;;;;;;;3.15;2.15;;;;;;;18.56;100.00;99846.47;5065768;28;20025;-80
2023/07/30 05:58:13;;;;;;;5.20;2.20;;;;;;;18.66;100.00;99847.56;5065962;28;20036;-78
2023/07/30 06:00:39;;;;;;;2.97;2.00;;;;;;;18.78;100.00;99845.16;5062921;28;20071;-79
2023/07/30 06:03:06;;;;;;;4.20;2.08;;;;;;;18.88;100.00;99842.56;5063661;28;20378;-79
2023/07/30 06:05:33;;;;;;;5.85;2.42;;;;;;;19.02;100.00;99841.94;5066591;28;20423;-80
2023/07/30 06:08:02;;;;;;;11.45;2.35;;;;;;;19.12;100.00;99840.13;5069134;28;20024;-78
2023/07/30 06:10:28;;;;;;;3.90;2.08;;;;;;;19.27;100.00;99851.09;5065756;28;20021;-79
2023/07/30 06:12:56;;;;;;;6.95;2.20;;;;;;;19.39;100.00;99852.38;5062305;28;20385;-79
2023/07/30 06:15:23;;;;;;;4.85;2.28;;;;;;;19.44;100.00;99845.66;5063599;28;20044;-78
2023/07/30 06:17:48;;;;;;;5.22;2.20;;;;;;;19.65;100.00;99865.16;5062449;28;20072;-77
2023/07/30 06:20:15;;;;;;;3.70;1.73;;;;;;;19.84;100.00;99854.09;5065317;28;20059;-79
2023/07/30 06:22:40;;;;;;;3.50;1.85;;;;;;;20.05;100.00;99862.78;5067445;28;20418;-76
2023/07/30 06:25:06;;;;;;;6.60;2.78;;;;;;;20.20;100.00;99846.22;5074497;28;20037;-77
2023/07/30 06:27:32;;;;;;;4.78;2.25;;;;;;;20.36;100.00;99844.19;5074434;28;20100;-76
2023/07/30 06:30:00;;;;;;;4.32;1.90;;;;;;;20.54;100.00;99851.81;5056566;28;20021;-77
2023/07/30 06:32:26;;;;;;;3.08;1.98;;;;;;;20.69;100.00;99845.31;5073982;28;20070;-78
2023/07/30 06:34:53;;;;;;;2.10;1.92;;;;;;;20.86;100.00;99848.47;5074670;28;20027;-77
2023/07/30 06:37:19;;;;;;;7.32;1.90;;;;;;;21.08;100.00;99856.47;5064033;28;20017;-77
2023/07/30 06:39:47;;;;;;;3.75;1.67;;;;;;;21.78;100.00;99852.28;5054281;28;20104;-79
2023/07/30 06:42:13;;;;;;;6.78;1.73;;;;;;;22.90;100.00;99853.34;5057345;28;20103;-77
2023/07/30 06:44:41;;;;;;;6.28;2.17;;;;;;;24.27;100.00;99851.50;5063042;28;20025;-77
2023/07/30 06:47:06;;;;;;;7.78;1.50;;;;;;;25.72;100.00;99833.53;5057375;28;20410;-78
2023/07/30 06:49:38;;;;;;;2.13;1.40;;;;;;;27.18;100.00;99833.72;5055134;28;20037;-76
2023/07/30 06:52:07;;;;;;;3.50;1.70;;;;;;;28.50;100.00;99823.28;5053837;28;20064;-75
2023/07/30 06:54:35;;;;;;;3.80;1.65;;;;;;;29.69;100.00;99816.41;5054380;28;20048;-78
2023/07/30 06:57:02;;;;;;;5.10;1.63;;;;;;;30.73;98.63;99834.53;5054267;28;20063;-81
2023/07/30 06:59:30;;;;;;;3.38;1.20;;;;;;;31.35;84.37;99838.19;5054804;28;20029;-81
2023/07/30 07:01:55;;;;;;;2.00;1.80;;;;;;;31.81;83.13;99837.06;5054838;28;20020;-81
2023/07/30 07:04:21;;;;;;;3.15;1.60;;;;;;;32.07;76.21;99848.78;5054372;28;20085;-80
2023/07/30 07:06:47;;;;;;;3.97;1.60;;;;;;;32.11;73.17;99846.81;5054215;28;20067;-86
2023/07/30 07:09:12;;;;;;;3.08;1.80;;;;;;;32.00;71.37;99843.97;5053764;28;20068;-81
2023/07/30 07:11:37;;;;;;;6.97;1.80;;;;;;;32.31;75.36;99853.06;5056273;28;20087;-79
2023/07/30 07:14:03;;;;;;;3.38;1.65;;;;;;;32.73;73.06;99856.75;5061958;28;20029;-81
2023/07/30 07:16:36;;;;;;;4.70;1.73;;;;;;;33.16;64.08;99857.44;5053985;28;20374;-78
2023/07/30 07:19:02;;;;;;;4.88;1.73;;;;;;;33.29;65.07;99850.69;5053614;28;20107;-77
2023/07/30 07:21:28;;;;;;;4.88;1.73;;;;;;;33.33;61.13;99853.09;5053469;28;20067;-77
2023/07/30 07:23:55;;;;;;;9.15;1.92;;;;;;;33.30;58.54;99861.13;5053517;28;20025;-78
2023/07/30 07:26:21;;;;;;;5.55;2.60;;;;;;;33.15;54.82;99867.00;5053562;28;20573;-77
2023/07/30 07:28:47;;;;;;;13.10;3.88;;;;;;;32.43;58.82;99862.59;5053529;28;20094;-77
2023/07/30 07:31:13;;;;;;;4.53;1.60;;;;;;;32.39;58.86;99867.53;5053393;28;20112;-77
2023/07/30 07:33:47;;;;;;;9.57;2.92;;;;;;;32.73;63.32;99863.44;5053839;28;20055;-81
2023/07/30 07:36:14;;;;;;;15.15;4.85;;;;;;;33.16;55.94;99869.28;5053367;28;20116;-82
2023/07/30 07:38:41;;;;;;;12.82;2.90;;;;;;;33.02;60.33;99868.59;5053669;28;20163;-82
2023/07/30 07:41:06;;;;;;;9.32;2.40;;;;;;;32.89;58.64;99867.19;5052069;28;20474;-80
2023/07/30 07:43:33;;;;;;;10.85;2.92;;;;;;;32.86;56.27;99862.63;5051591;28;20036;-75
2023/07/30 07:45:59;;;;;;;3.47;1.40;;;;;;;32.97;55.43;99858.75;5053326;28;20485;-79
2023/07/30 07:48:24;;;;;;;4.88;1.75;;;;;;;33.43;56.86;99866.19;5051525;28;20509;-82
2023/07/30 07:50:50;;;;;;;3.95;1.67;;;;;;;34.05;58.45;99846.13;5053455;28;20056;-77
2023/07/30 07:53:15;;;;;;;3.60;1.42;;;;;;;34.47;51.24;99851.00;5060791;28;20032;-78
2023/07/30 07:55:42;;;;;;;4.82;1.40;;;;;;;34.53;49.34;99856.47;5072910;28;20037;-79
2023/07/30 07:58:15;;;;;;;3.85;1.85;;;;;;;34.27;47.20;99850.13;5071722;28;20040;-79
2023/07/30 08:00:42;;;;;;;6.78;2.00;;;;;;;33.35;53.07;99838.38;5072913;28;20470;-80
2023/07/30 08:03:09;;;;;;;4.15;1.73;;;;;;;33.42;53.05;99849.88;5073006;28;20037;-82
2023/07/30 08:05:36;;;;;;;3.95;1.92;;;;;;;33.60;52.60;99840.31;5073512;28;20024;-79
2023/07/30 08:08:03;;;;;;;5.82;1.50;;;;;;;33.67;53.04;99848.09;5072924;28;20469;-81
2023/07/30 08:10:29;;;;;;;2.17;1.75;;;;;;;33.48;51.28;99852.34;5071768;28;20028;-80
2023/07/30 08:12:57;;;;;;;4.60;1.58;;;;;;;33.56;52.76;99854.94;5070735;28;20024;-78
2023/07/30 08:15:23;;;;;;;5.38;1.48;;;;;;;34.01;56.67;99845.97;5082991;28;20029;-79
2023/07/30 08:17:54;;;;;;;3.03;1.38;;;;;;;34.55;52.36;99851.38;5073124;28;20032;-77
2023/07/30 08:20:28;;;;;;;3.42;1.88;;;;;;;34.90;48.39;99846.94;5080609;28;20037;-78
2023/07/30 08:22:54;;;;;;;2.30;1.63;;;;;;;35.16;46.60;99848.06;5084773;28;20071;-80
2023/07/30 08:25:20;;;;;;;2.63;1.42;;;;;;;35.13;45.59;99852.41;5085327;28;20028;-78
2023/07/30 08:27:45;;;;;;;2.80;1.42;;;;;;;35.35;46.37;99850.31;5079727;28;20035;-79
2023/07/30 08:30:13;;;;;;;4.78;1.63;;;;;;;35.24;44.50;99853.56;5075487;28;20493;-79
2023/07/30 08:32:38;;;;;;;5.25;1.55;;;;;;;35.20;44.91;99851.22;5072564;28;20078;-80
2023/07/30 08:35:04;;;;;;;1.88;1.35;;;;;;;34.27;45.66;99850.13;5072355;28;20121;-77
2023/07/30 08:37:38;;;;;;;3.15;1.67;;;;;;;34.12;48.68;99854.63;5071178;28;20167;-77
2023/07/30 08:40:04;;;;;;;3.92;1.52;;;;;;;34.11;47.68;99841.25;5072446;28;20025;-79
2023/07/30 08:42:31;;;;;;;3.22;1.90;;;;;;;33.81;47.79;99842.81;5054385;28;20025;-78
2023/07/30 08:44:56;;;;;;;3.85;1.13;;;;;;;33.94;47.76;99833.03;5072210;28;20033;-77
2023/07/30 08:47:23;;;;;;;2.17;1.33;;;;;;;34.08;47.30;99844.78;5054620;28;20051;-78
2023/07/30 08:49:48;;;;;;;5.07;1.63;;;;;;;34.18;47.28;99842.31;5071995;28;20064;-78
2023/07/30 08:52:16;;;;;;;6.22;1.48;;;;;;;34.17;48.67;99847.47;5070522;28;20051;-80
2023/07/30 08:54:43;;;;;;;1.33;1.15;;;;;;;34.15;47.58;99844.44;5064440;28;20432;-84
2023/07/30 08:57:08;;;;;;;2.08;1.42;;;;;;;33.66;47.58;99834.69;5160241;22;20020;-77
2023/07/30 08:59:39;;;;;;;2.30;1.42;;;;;;;33.37;46.95;99839.25;5072223;28;20037;-77
2023/07/30 09:02:10;;;;;;;3.28;1.50;;;;;;;33.54;49.96;99843.75;5063690;28;20020;-78
2023/07/30 09:04:38;;;;;;;1.50;1.30;;;;;;;33.25;50.26;99841.63;5056897;28;20043;-77
2023/07/30 09:07:05;;;;;;;3.20;2.08;;;;;;;33.03;52.65;99835.34;5054823;28;20029;-78
2023/07/30 09:09:31;;;;;;;3.22;1.38;;;;;;;31.69;58.89;99830.53;5055653;28;20102;-77
2023/07/30 09:12:04;;;;;;;3.72;1.58;;;;;;;30.43;66.21;99809.88;5054054;28;20417;-77
2023/07/30 09:14:30;;;;;;;1.67;1.38;;;;;;;30.18;69.60;99822.38;5054689;28;20040;-78
2023/07/30 09:17:02;;;;;;;4.55;1.40;;;;;;;30.51;61.52;99813.34;5061287;28;20051;-78
2023/07/30 09:19:27;;;;;;;1.92;1.20;;;;;;;30.76;63.21;99816.31;5070076;28;20124;-77
2023/07/30 09:21:53;;;;;;;2.28;1.60;;;;;;;31.04;63.31;99816.41;5069052;28;20059;-78
2023/07/30 09:24:22;;;;;;;3.22;1.38;;;;;;;31.11;64.22;99818.28;5090833;28;20115;-80
2023/07/30 09:26:49;;;;;;;6.13;1.48;;;;;;;31.44;62.35;99812.06;5090687;28;20067;-77
2023/07/30 09:29:15;;;;;;;4.95;1.67;;;;;;;31.15;63.58;99803.78;5094395;28;20048;-75
2023/07/30 09:31:54;;;;;;;3.22;1.40;;;;;;;31.46;62.80;99809.97;5095700;28;20026;-77
2023/07/30 09:34:21;;;;;;;3.55;1.63;;;;;;;31.68;61.35;99813.44;5094722;28;20036;-81
2023/07/30 09:36:48;;;;;;;1.77;1.42;;;;;;;31.47;61.51;99808.56;5095440;28;20453;-80
2023/07/30 09:39:24;;;;;;;5.05;2.22;;;;;;;30.51;67.94;99799.31;5095739;28;20032;-81
2023/07/30 09:41:51;;;;;;;4.40;1.52;;;;;;;30.50;68.22;99794.88;5089430;28;20078;-76
2023/07/30 09:44:25;;;;;;;2.03;1.50;;;;;;;30.32;69.94;99795.94;5075184;28;20357;-76
2023/07/30 09:46:51;;;;;;;2.92;1.42;;;;;;;29.66;71.60;99793.38;5074078;28;20036;-75
2023/07/30 09:49:18;;;;;;;3.03;1.85;;;;;;;29.69;72.64;99797.97;5075042;28;20366;-76
2023/07/30 09:51:47;;;;;;;1.90;1.50;;;;;;;29.68;71.71;99785.41;5090855;28;20040;-75
2023/07/30 09:54:14;;;;;;;6.07;1.50;;;;;;;29.42;76.63;99785.94;5090871;28;20036;-74
2023/07/30 09:56:42;;;;;;;2.63;1.67;;;;;;;28.89;81.17;99785.44;5074683;28;20409;-76
2023/07/30 09:59:09;;;;;;;1.88;1.50;;;;;;;28.80;83.34;99780.41;5082529;28;20073;-74
2023/07/30 10:01:44;;;;;;;3.17;1.50;;;;;;;29.20;76.04;99782.31;5094952;28;20028;-74
2023/07/30 10:04:10;;;;;;;3.22;1.40;;;;;;;29.09;79.21;99775.00;5054634;28;20049;-73
2023/07/30 10:06:42;;;;;;;2.38;1.92;;;;;;;28.67;82.49;99778.84;5037037;28;20110;-75
2023/07/30 10:09:08;;;;;;;2.55;1.70;;;;;;;28.90;80.92;99784.03;5053114;28;20107;-74
2023/07/30 10:11:35;;;;;;;1.90;1.55;;;;;;;29.17;73.08;99784.38;5053232;28;20041;-75
2023/07/30 10:14:09;;;;;;;1.60;1.50;;;;;;;28.96;70.71;99772.66;5053481;28;20063;-75
2023/07/30 10:16:36;;;;;;;3.45;1.40;;;;;;;28.88;77.05;99772.16;5053266;28;20505;-75
2023/07/30 10:19:03;;;;;;;1.55;1.30;;;;;;;28.88;76.45;99772.88;5053066;28;20044;-77
2023/07/30 10:21:32;;;;;;;4.53;1.63;;;;;;;28.29;80.17;99750.53;5070326;28;20044;-73
2023/07/30 10:24:02;;;;;;;2.13;1.48;;;;;;;28.69;77.26;99778.22;5072814;28;20111;-75
2023/07/30 10:26:33;;;;;;;2.33;1.58;;;;;;;28.85;74.55;99765.34;5073275;28;20054;-74
2023/07/30 10:29:19;;;;;;;1.63;1.52;;;;;;;28.63;75.68;99766.84;5080154;28;20181;-75
2023/07/30 10:31:52;;;;;;;2.00;1.52;;;;;;;28.57;73.42;99768.59;5094003;28;20036;-76
2023/07/30 10:34:17;;;;;;;1.85;1.40;;;;;;;28.63;76.68;99763.13;5094468;28;20133;-74
2023/07/30 10:36:45;;;;;;;2.47;1.60;;;;;;;28.70;76.44;99770.94;5094334;28;20472;-74
2023/07/30 10:39:15;;;;;;;3.72;1.35;;;;;;;28.88;76.11;99757.44;5094119;28;20102;-76
2023/07/30 10:41:46;;;;;;;7.45;1.90;;;;;;;29.01;77.14;99753.84;5094015;28;20098;-73
2023/07/30 10:44:32;;;;;;;2.93;1.50;;;;;;;29.12;77.59;99758.25;5094117;28;20051;-74
2023/07/30 10:46:58;;;;;;;1.75;1.50;;;;;;;29.13;78.74;99756.84;5093805;28;20074;-75
2023/07/30 10:49:24;;;;;;;2.53;1.58;;;;;;;28.77;78.70;99744.22;5092888;28;20044;-73
2023/07/30 10:51:55;;;;;;;3.58;1.95;;;;;;;28.71;78.44;99749.72;5093605;28;20077;-75
2023/07/30 10:54:20;;;;;;;4.13;1.50;;;;;;;28.69;79.84;99737.81;5093759;28;20411;-75
2023/07/30 10:56:46;;;;;;;1.95;1.33;;;;;;;28.69;77.43;99743.69;5092933;28;20274;-75
2023/07/30 10:59:12;;;;;;;3.83;1.38;;;;;;;28.79;78.81;99735.53;5100129;28;20397;-75
2023/07/30 11:01:40;;;;;;;2.05;1.25;;;;;;;28.88;76.71;99746.41;5073254;28;20032;-76
2023/07/30 11:04:10;;;;;;;3.70;1.30;;;;;;;28.85;74.50;99746.91;5073189;28;20093;-74
2023/07/30 11:06:35;;;;;;;1.58;1.38;;;;;;;28.84;75.30;99746.16;5073130;28;20040;-74
2023/07/30 11:09:00;;;;;;;2.63;1.45;;;;;;;28.78;74.49;99745.78;5088668;28;20043;-75
2023/07/30 11:11:26;;;;;;;1.20;1.10;;;;;;;28.69;75.57;99737.81;5072663;28;20028;-76
2023/07/30 11:13:51;;;;;;;1.77;1.67;;;;;;;27.91;81.85;99742.84;5088843;28;20032;-75
2023/07/30 11:16:18;;;;;;;1.38;1.27;;;;;;;27.14;86.14;99739.53;5071719;28;20056;-76
2023/07/30 11:18:56;;;;;;;2.78;1.70;;;;;;;26.45;92.63;99745.41;5087377;28;20032;-76
2023/07/30 11:21:23;;;;;;;4.38;2.17;;;;;;;26.21;100.00;99756.88;5073400;28;20064;-76
2023/07/30 11:23:51;;;;;;;8.05;2.42;;;;;;;25.77;100.00;99768.81;5073269;28;20036;-76
2023/07/30 11:26:19;;;;;;;5.82;2.42;;;;;;;24.50;100.00;99767.28;5073793;28;20032;-76